Time;durP1;ratioP1;P1;durP2;ratioP2;P2;SDS_P1;SDS_P2;PMS_P1;PMS_P2;Temp;Humidity;BMP_temperature;BMP_pressure;BME280_temperature;BME280_humidity;BME280_pressure;Samples;Min_cycle;Max_cycle;Signal;HPM_P1;HPM_P2
2021/09/09 00:01:55;;;;;;;15.27;10.32;;;;;;;;;;5051403;28;20049;-66
2021/09/09 00:04:22;;;;;;;12.75;10.32;;;;;;;;;;5034053;28;20060;-66
2021/09/09 00:06:48;;;;;;;12.38;10.75;;;;;;;;;;5033950;28;20069;-66
2021/09/09 00:09:16;;;;;;;12.65;9.93;;;;;;;;;;5035252;28;20049;-66
2021/09/09 00:11:43;;;;;;;14.05;10.27;;;;;;;;;;5011972;28;20049;-66
2021/09/09 00:14:09;;;;;;;13.20;10.20;;;;;;;;;;5051785;28;20099;-66
2021/09/09 00:16:39;;;;;;;15.30;11.48;;;;;;;;;;5019162;28;20106;-67
2021/09/09 00:19:05;;;;;;;12.38;10.05;;;;;;;;;;5055605;28;20076;-66
2021/09/09 00:21:32;;;;;;;13.30;10.63;;;;;;;;;;5029570;28;20048;-67
2021/09/09 00:23:59;;;;;;;15.18;10.75;;;;;;;;;;5021411;28;20461;-66
2021/09/09 00:26:25;;;;;;;12.60;10.00;;;;;;;;;;5039810;28;20095;-66
2021/09/09 00:28:52;;;;;;;11.57;10.38;;;;;;;;;;5055346;28;20049;-66
2021/09/09 00:31:18;;;;;;;12.90;10.32;;;;;;;;;;5037814;28;20045;-66
2021/09/09 00:33:46;;;;;;;13.40;11.05;;;;;;;;;;5036448;28;20500;-66
2021/09/09 00:36:12;;;;;;;13.65;10.10;;;;;;;;;;5052771;28;20534;-66
2021/09/09 00:38:39;;;;;;;13.40;11.43;;;;;;;;;;5021176;28;20098;-66
2021/09/09 00:41:06;;;;;;;15.25;10.75;;;;;;;;;;5037027;28;20048;-66
2021/09/09 00:43:32;;;;;;;13.85;11.32;;;;;;;;;;5027553;28;20053;-66
2021/09/09 00:45:59;;;;;;;15.73;10.57;;;;;;;;;;5035417;28;20054;-66
2021/09/09 00:48:25;;;;;;;15.27;11.40;;;;;;;;;;5035120;28;20416;-66
2021/09/09 00:50:52;;;;;;;13.05;10.60;;;;;;;;;;5017577;28;20091;-66
2021/09/09 00:53:19;;;;;;;14.02;11.27;;;;;;;;;;5017441;28;20056;-66
2021/09/09 00:55:49;;;;;;;11.88;10.52;;;;;;;;;;5053411;28;20503;-66
2021/09/09 00:58:16;;;;;;;14.48;10.30;;;;;;;;;;5037328;28;20459;-66
2021/09/09 01:00:43;;;;;;;12.18;10.60;;;;;;;;;;5036813;28;20048;-66
2021/09/09 01:03:09;;;;;;;13.18;10.65;;;;;;;;;;5037286;28;20053;-66
2021/09/09 01:05:37;;;;;;;12.57;10.38;;;;;;;;;;5042921;28;20504;-66
2021/09/09 01:08:04;;;;;;;11.68;10.45;;;;;;;;;;5001326;28;20045;-66
2021/09/09 01:10:32;;;;;;;15.52;10.70;;;;;;;;;;5000970;28;20050;-67
2021/09/09 01:12:59;;;;;;;13.05;10.68;;;;;;;;;;4998880;28;20048;-66
2021/09/09 01:15:25;;;;;;;23.02;11.18;;;;;;;;;;5036267;28;20049;-66
2021/09/09 01:17:52;;;;;;;14.32;10.82;;;;;;;;;;5019507;28;20052;-66
2021/09/09 01:20:19;;;;;;;15.93;10.80;;;;;;;;;;5036898;28;20103;-66
2021/09/09 01:22:45;;;;;;;14.10;10.88;;;;;;;;;;5053765;28;20622;-66
2021/09/09 01:25:12;;;;;;;13.00;10.50;;;;;;;;;;5054230;28;20056;-66
2021/09/09 01:27:38;;;;;;;14.27;11.63;;;;;;;;;;5038316;28;20053;-66
2021/09/09 01:30:06;;;;;;;14.25;10.43;;;;;;;;;;5034401;28;20049;-66
2021/09/09 01:32:33;;;;;;;13.30;10.65;;;;;;;;;;5000541;28;20041;-67
2021/09/09 01:34:59;;;;;;;12.75;10.52;;;;;;;;;;5040010;28;20057;-66
2021/09/09 01:37:26;;;;;;;16.10;11.30;;;;;;;;;;5034245;28;20110;-66
2021/09/09 01:39:55;;;;;;;13.45;11.48;;;;;;;;;;5033986;28;20053;-66
2021/09/09 01:42:22;;;;;;;15.70;13.02;;;;;;;;;;5016616;28;20054;-66
2021/09/09 01:44:48;;;;;;;20.27;13.15;;;;;;;;;;5016516;28;20061;-66
2021/09/09 01:47:15;;;;;;;16.67;12.50;;;;;;;;;;5041082;28;20091;-66
2021/09/09 01:49:41;;;;;;;15.38;12.38;;;;;;;;;;5053993;28;20056;-66
2021/09/09 01:52:08;;;;;;;19.52;12.80;;;;;;;;;;5022891;28;20049;-66
2021/09/09 01:54:35;;;;;;;15.75;12.30;;;;;;;;;;5000180;28;20046;-66
2021/09/09 01:57:02;;;;;;;13.60;12.00;;;;;;;;;;5051504;28;20052;-66
2021/09/09 01:59:28;;;;;;;16.17;11.98;;;;;;;;;;5019940;28;20052;-66
2021/09/09 02:01:55;;;;;;;15.75;12.20;;;;;;;;;;5053415;28;20053;-66
2021/09/09 02:04:23;;;;;;;14.48;12.13;;;;;;;;;;5046565;28;20052;-66
2021/09/09 02:06:49;;;;;;;15.32;12.40;;;;;;;;;;5049243;28;20061;-66
2021/09/09 02:09:16;;;;;;;16.67;12.55;;;;;;;;;;5053644;28;20098;-66
2021/09/09 02:11:42;;;;;;;19.27;12.13;;;;;;;;;;5053077;28;20102;-66
2021/09/09 02:14:09;;;;;;;18.35;12.98;;;;;;;;;;5037987;28;20053;-67
2021/09/09 02:16:35;;;;;;;19.00;11.93;;;;;;;;;;5033698;28;20100;-66
2021/09/09 02:19:02;;;;;;;19.80;12.07;;;;;;;;;;5033449;28;20054;-66
2021/09/09 02:21:29;;;;;;;15.27;12.40;;;;;;;;;;5034700;28;20053;-66
2021/09/09 02:23:55;;;;;;;15.55;12.13;;;;;;;;;;5035347;28;20106;-66
2021/09/09 02:26:22;;;;;;;17.10;12.07;;;;;;;;;;5052843;28;20083;-66
2021/09/09 02:28:49;;;;;;;18.92;12.63;;;;;;;;;;5053086;28;20056;-66
2021/09/09 02:31:15;;;;;;;14.98;11.57;;;;;;;;;;5035601;28;20110;-66
2021/09/09 02:33:42;;;;;;;13.73;11.55;;;;;;;;;;5052923;28;20080;-66
2021/09/09 02:36:08;;;;;;;15.20;12.30;;;;;;;;;;5043457;28;20048;-66
2021/09/09 02:38:36;;;;;;;14.68;11.35;;;;;;;;;;5052472;28;20392;-66
2021/09/09 02:41:03;;;;;;;14.50;11.07;;;;;;;;;;5055554;23;20049;-68
2021/09/09 02:43:30;;;;;;;12.57;10.98;;;;;;;;;;5052872;28;20052;-68
2021/09/09 02:45:56;;;;;;;12.75;10.82;;;;;;;;;;5053129;28;20106;-68
2021/09/09 02:48:23;;;;;;;11.98;10.20;;;;;;;;;;5052890;28;20367;-68
2021/09/09 02:50:50;;;;;;;13.00;11.23;;;;;;;;;;5051933;28;20056;-68
2021/09/09 02:53:16;;;;;;;14.15;11.20;;;;;;;;;;5032730;28;20045;-67
2021/09/09 02:55:43;;;;;;;14.13;11.43;;;;;;;;;;5037933;28;20052;-67
2021/09/09 02:58:09;;;;;;;13.73;10.57;;;;;;;;;;5051508;28;20553;-67
2021/09/09 03:00:36;;;;;;;13.63;11.13;;;;;;;;;;5033208;28;20484;-67
2021/09/09 03:03:03;;;;;;;14.50;11.63;;;;;;;;;;5032563;28;20049;-68
2021/09/09 03:05:30;;;;;;;15.80;11.60;;;;;;;;;;5044135;28;20075;-67
2021/09/09 03:07:56;;;;;;;13.73;11.88;;;;;;;;;;5046944;28;20111;-67
2021/09/09 03:10:23;;;;;;;12.60;10.85;;;;;;;;;;5032432;28;20053;-67
2021/09/09 03:12:50;;;;;;;14.35;11.07;;;;;;;;;;5032613;28;20045;-67
2021/09/09 03:15:16;;;;;;;14.20;11.65;;;;;;;;;;5033832;28;20053;-68
2021/09/09 03:17:43;;;;;;;14.75;11.82;;;;;;;;;;5049398;28;20045;-67
2021/09/09 03:20:10;;;;;;;17.52;12.10;;;;;;;;;;5052217;28;20052;-67
2021/09/09 03:22:37;;;;;;;13.48;11.50;;;;;;;;;;5034275;28;20052;-68
2021/09/09 03:25:04;;;;;;;13.27;11.27;;;;;;;;;;5052791;28;20052;-68
2021/09/09 03:27:31;;;;;;;13.98;11.82;;;;;;;;;;5032807;28;20050;-67
2021/09/09 03:29:57;;;;;;;13.43;11.40;;;;;;;;;;5032000;28;20053;-68
2021/09/09 03:32:24;;;;;;;13.75;11.57;;;;;;;;;;5031896;28;20475;-68
2021/09/09 03:34:51;;;;;;;14.93;11.30;;;;;;;;;;5032002;28;20103;-68
2021/09/09 03:37:17;;;;;;;13.40;11.20;;;;;;;;;;5031967;28;20079;-68
2021/09/09 03:39:44;;;;;;;14.23;11.43;;;;;;;;;;5045470;28;20068;-68
2021/09/09 03:42:10;;;;;;;15.02;12.30;;;;;;;;;;5051897;28;20087;-68
2021/09/09 03:44:37;;;;;;;14.77;11.57;;;;;;;;;;5051752;28;20404;-68
2021/09/09 03:47:03;;;;;;;15.73;11.07;;;;;;;;;;5052022;28;20053;-68
2021/09/09 03:49:30;;;;;;;13.70;11.80;;;;;;;;;;5051857;28;20049;-68
2021/09/09 03:51:57;;;;;;;16.50;11.85;;;;;;;;;;5045847;28;20447;-68
2021/09/09 03:54:23;;;;;;;18.10;12.40;;;;;;;;;;5042823;28;20523;-68
2021/09/09 03:56:50;;;;;;;16.90;11.63;;;;;;;;;;5036777;28;20053;-67
2021/09/09 03:59:17;;;;;;;15.75;11.70;;;;;;;;;;5031724;28;20053;-68
2021/09/09 04:01:43;;;;;;;15.05;12.18;;;;;;;;;;5044120;28;20045;-67
2021/09/09 04:04:10;;;;;;;15.98;13.38;;;;;;;;;;5051378;28;20056;-67
2021/09/09 04:06:37;;;;;;;17.75;12.85;;;;;;;;;;5040566;28;20045;-67
2021/09/09 04:09:03;;;;;;;15.98;12.35;;;;;;;;;;5031762;28;20119;-67
2021/09/09 04:11:30;;;;;;;16.73;12.32;;;;;;;;;;5049934;28;20095;-67
2021/09/09 04:13:57;;;;;;;15.52;13.18;;;;;;;;;;5035178;28;20049;-67
2021/09/09 04:16:23;;;;;;;14.80;13.20;;;;;;;;;;5031777;28;20053;-67
2021/09/09 04:18:50;;;;;;;13.68;11.75;;;;;;;;;;5044919;28;20049;-67
2021/09/09 04:21:17;;;;;;;14.50;12.13;;;;;;;;;;5045538;28;20091;-67
2021/09/09 04:23:43;;;;;;;14.50;11.45;;;;;;;;;;5049245;28;20057;-68
2021/09/09 04:26:10;;;;;;;15.60;12.40;;;;;;;;;;5045861;28;20560;-67
2021/09/09 04:28:37;;;;;;;13.88;11.05;;;;;;;;;;5031743;28;20049;-67
2021/09/09 04:31:04;;;;;;;16.77;12.07;;;;;;;;;;5049023;28;20087;-68
2021/09/09 04:33:30;;;;;;;15.98;12.25;;;;;;;;;;5046608;28;20140;-67
2021/09/09 04:35:57;;;;;;;13.63;12.07;;;;;;;;;;5050921;28;20045;-67
2021/09/09 04:38:23;;;;;;;15.90;12.75;;;;;;;;;;5047482;28;20057;-67
2021/09/09 04:40:50;;;;;;;21.67;12.45;;;;;;;;;;5049233;28;20049;-68
2021/09/09 04:43:17;;;;;;;15.40;12.05;;;;;;;;;;5048885;28;20045;-67
2021/09/09 04:45:46;;;;;;;16.25;11.90;;;;;;;;;;5031440;28;20054;-68
2021/09/09 04:48:13;;;;;;;15.27;11.63;;;;;;;;;;5031685;28;20053;-68
2021/09/09 04:50:40;;;;;;;14.77;11.85;;;;;;;;;;5036332;28;20049;-67
2021/09/09 04:53:07;;;;;;;16.90;12.77;;;;;;;;;;5051131;28;20041;-67
2021/09/09 04:55:34;;;;;;;17.25;12.38;;;;;;;;;;5038338;28;20487;-67
2021/09/09 04:58:00;;;;;;;15.48;12.32;;;;;;;;;;5031444;28;20054;-67
2021/09/09 05:00:27;;;;;;;14.85;12.38;;;;;;;;;;5031231;28;20100;-68
2021/09/09 05:02:54;;;;;;;16.40;12.43;;;;;;;;;;5032002;28;20095;-68
2021/09/09 05:05:21;;;;;;;18.80;12.02;;;;;;;;;;5034725;28;20669;-68
2021/09/09 05:07:47;;;;;;;17.77;12.02;;;;;;;;;;5034574;28;20053;-68
2021/09/09 05:10:14;;;;;;;15.73;11.70;;;;;;;;;;5034795;28;20053;-68
2021/09/09 05:12:41;;;;;;;14.85;12.40;;;;;;;;;;5034636;28;20049;-68
2021/09/09 05:15:08;;;;;;;14.25;11.60;;;;;;;;;;5035370;28;20053;-68
2021/09/09 05:17:34;;;;;;;15.38;12.07;;;;;;;;;;5034519;28;20053;-68
2021/09/09 05:20:01;;;;;;;17.85;12.57;;;;;;;;;;5034483;28;20061;-68
2021/09/09 05:22:28;;;;;;;13.55;11.25;;;;;;;;;;5034415;28;20470;-67
2021/09/09 05:24:54;;;;;;;13.43;11.48;;;;;;;;;;5034467;28;20508;-67
2021/09/09 05:27:21;;;;;;;14.68;11.75;;;;;;;;;;5034690;28;20190;-67
2021/09/09 05:29:48;;;;;;;12.63;10.65;;;;;;;;;;5034330;28;20111;-68
2021/09/09 05:32:14;;;;;;;11.80;10.52;;;;;;;;;;5034339;28;20045;-67
2021/09/09 05:34:41;;;;;;;13.60;11.75;;;;;;;;;;5034481;28;20100;-67
2021/09/09 05:37:08;;;;;;;14.80;11.20;;;;;;;;;;5032369;28;20049;-68
2021/09/09 05:39:34;;;;;;;14.45;11.77;;;;;;;;;;5031952;28;20057;-68
2021/09/09 05:42:01;;;;;;;20.55;10.80;;;;;;;;;;5032128;28;20099;-67
2021/09/09 05:44:27;;;;;;;16.63;11.35;;;;;;;;;;5032248;28;20119;-68
2021/09/09 05:46:54;;;;;;;14.93;11.88;;;;;;;;;;5032474;28;20064;-68
2021/09/09 05:49:21;;;;;;;14.00;10.65;;;;;;;;;;5031308;28;20460;-68
2021/09/09 05:51:47;;;;;;;14.73;11.00;;;;;;;;;;5032035;28;20045;-67
2021/09/09 05:54:14;;;;;;;14.25;10.57;;;;;;;;;;5032058;28;20111;-67
2021/09/09 05:56:41;;;;;;;20.85;10.65;;;;;;;;;;5031950;28;20080;-68
2021/09/09 05:59:07;;;;;;;20.27;11.07;;;;;;;;;;5032063;28;20045;-68
2021/09/09 06:01:35;;;;;;;13.50;10.30;;;;;;;;;;5032520;28;20115;-68
2021/09/09 06:04:02;;;;;;;12.13;9.95;;;;;;;;;;5014048;28;20049;-69
2021/09/09 06:06:29;;;;;;;13.05;10.10;;;;;;;;;;5032207;28;20060;-67
2021/09/09 06:08:56;;;;;;;15.57;10.32;;;;;;;;;;5032058;28;20053;-68
2021/09/09 06:11:22;;;;;;;15.15;10.30;;;;;;;;;;5031846;28;20524;-68
2021/09/09 06:13:49;;;;;;;13.52;9.88;;;;;;;;;;5031495;28;20484;-68
2021/09/09 06:16:16;;;;;;;11.25;9.88;;;;;;;;;;5031492;28;20105;-68
2021/09/09 06:18:42;;;;;;;13.93;10.45;;;;;;;;;;5014079;28;20103;-68
2021/09/09 06:21:09;;;;;;;13.77;11.23;;;;;;;;;;5031990;28;20286;-68
2021/09/09 06:23:36;;;;;;;12.50;10.70;;;;;;;;;;5031500;28;20049;-68
2021/09/09 06:26:16;;;;;;;12.48;11.07;;;;;;;;;;5031961;28;20054;-68
2021/09/09 06:28:43;;;;;;;12.25;10.73;;;;;;;;;;5031161;28;20566;-68
2021/09/09 06:31:09;;;;;;;12.88;9.98;;;;;;;;;;5031068;28;20049;-66
2021/09/09 06:33:36;;;;;;;15.25;9.73;;;;;;;;;;5031225;28;20050;-66
2021/09/09 06:36:03;;;;;;;13.05;9.98;;;;;;;;;;5031278;28;20111;-66
2021/09/09 06:38:30;;;;;;;14.80;10.23;;;;;;;;;;5030939;28;20550;-66
2021/09/09 06:40:57;;;;;;;12.05;10.07;;;;;;;;;;5030767;28;20115;-66
2021/09/09 06:43:23;;;;;;;11.48;10.27;;;;;;;;;;5030428;28;20061;-66
2021/09/09 06:45:50;;;;;;;13.10;10.07;;;;;;;;;;5030774;28;20871;-66
2021/09/09 06:48:17;;;;;;;14.40;9.90;;;;;;;;;;5031243;28;20042;-66
2021/09/09 06:50:43;;;;;;;15.27;9.95;;;;;;;;;;5030654;28;20049;-67
2021/09/09 06:53:10;;;;;;;13.45;9.77;;;;;;;;;;5030647;28;20049;-66
2021/09/09 06:55:37;;;;;;;16.17;10.40;;;;;;;;;;5030175;28;20554;-67
2021/09/09 06:58:04;;;;;;;12.80;10.10;;;;;;;;;;5030649;28;20211;-67
2021/09/09 07:00:30;;;;;;;14.02;8.93;;;;;;;;;;5030803;28;20080;-67
2021/09/09 07:02:57;;;;;;;10.75;8.63;;;;;;;;;;5030306;28;20128;-67
2021/09/09 07:05:25;;;;;;;11.07;7.57;;;;;;;;;;5030761;28;20272;-66
2021/09/09 07:07:51;;;;;;;10.63;8.13;;;;;;;;;;5029756;28;20053;-66
2021/09/09 07:10:18;;;;;;;9.13;7.78;;;;;;;;;;5030709;28;20400;-66
2021/09/09 07:12:46;;;;;;;12.80;8.43;;;;;;;;;;5030012;28;20119;-67
2021/09/09 07:15:12;;;;;;;8.68;7.05;;;;;;;;;;5030315;28;20050;-66
2021/09/09 07:17:39;;;;;;;9.50;6.97;;;;;;;;;;5029921;28;20091;-67
2021/09/09 07:20:07;;;;;;;9.57;7.15;;;;;;;;;;5030306;28;20080;-67
2021/09/09 07:22:34;;;;;;;8.55;7.63;;;;;;;;;;5029429;28;20045;-67
2021/09/09 07:25:00;;;;;;;8.85;7.68;;;;;;;;;;5029973;28;20053;-67
2021/09/09 07:27:27;;;;;;;12.20;7.60;;;;;;;;;;5012693;28;20057;-68
2021/09/09 07:29:54;;;;;;;9.85;7.80;;;;;;;;;;5033076;28;20547;-67
2021/09/09 07:32:22;;;;;;;9.73;7.15;;;;;;;;;;5041724;28;20052;-70
2021/09/09 07:34:50;;;;;;;8.82;6.95;;;;;;;;;;5033354;28;20053;-71
2021/09/09 07:37:17;;;;;;;9.18;7.32;;;;;;;;;;5017075;28;20115;-70
2021/09/09 07:39:47;;;;;;;10.77;7.72;;;;;;;;;;5019531;28;20061;-67
2021/09/09 07:42:14;;;;;;;8.93;6.95;;;;;;;;;;5020386;28;20568;-68
2021/09/09 07:44:42;;;;;;;8.48;7.68;;;;;;;;;;5016450;28;20414;-68
2021/09/09 07:47:12;;;;;;;9.68;8.10;;;;;;;;;;5015583;28;20068;-67
2021/09/09 07:49:39;;;;;;;8.65;7.40;;;;;;;;;;5015716;28;20083;-68
2021/09/09 07:52:06;;;;;;;7.97;6.53;;;;;;;;;;5014889;28;20053;-68
2021/09/09 07:54:32;;;;;;;10.27;6.75;;;;;;;;;;5018744;28;20500;-68
2021/09/09 07:56:59;;;;;;;8.50;6.50;;;;;;;;;;5017940;28;20096;-68
2021/09/09 07:59:26;;;;;;;9.23;6.35;;;;;;;;;;5002433;28;20049;-68
2021/09/09 08:01:53;;;;;;;7.03;6.32;;;;;;;;;;5018106;28;20096;-68
2021/09/09 08:04:20;;;;;;;7.25;6.40;;;;;;;;;;5018572;28;20053;-68
2021/09/09 08:06:47;;;;;;;10.75;6.90;;;;;;;;;;5017677;28;20527;-67
2021/09/09 08:09:13;;;;;;;9.05;7.68;;;;;;;;;;5019855;28;20053;-68
2021/09/09 08:11:40;;;;;;;10.63;6.50;;;;;;;;;;5016752;28;20509;-68
2021/09/09 08:14:07;;;;;;;8.70;6.05;;;;;;;;;;5023634;28;20041;-68
2021/09/09 08:16:34;;;;;;;10.52;6.50;;;;;;;;;;5018066;28;20411;-69
2021/09/09 08:19:01;;;;;;;7.82;6.60;;;;;;;;;;5019623;28;20050;-68
2021/09/09 08:21:28;;;;;;;8.05;6.57;;;;;;;;;;5017076;28;20464;-68
2021/09/09 08:23:54;;;;;;;8.65;7.03;;;;;;;;;;5016930;28;20049;-68
2021/09/09 08:26:21;;;;;;;7.72;6.32;;;;;;;;;;5019622;28;20055;-71
2021/09/09 08:28:48;;;;;;;7.18;5.78;;;;;;;;;;5002952;28;20054;-70
2021/09/09 08:31:15;;;;;;;6.80;5.82;;;;;;;;;;5021155;28;20463;-68
2021/09/09 08:33:42;;;;;;;8.07;6.50;;;;;;;;;;5016520;28;20103;-69
2021/09/09 08:36:12;;;;;;;6.63;6.03;;;;;;;;;;5010062;28;20497;-67
2021/09/09 08:38:38;;;;;;;11.43;6.57;;;;;;;;;;5012441;28;20088;-67
2021/09/09 08:41:05;;;;;;;7.78;5.50;;;;;;;;;;5007938;28;20049;-68
2021/09/09 08:43:32;;;;;;;8.77;6.28;;;;;;;;;;5019637;28;20097;-67
2021/09/09 08:46:00;;;;;;;8.93;6.57;;;;;;;;;;5021878;28;20099;-67
2021/09/09 08:48:28;;;;;;;8.20;6.55;;;;;;;;;;5020001;28;20058;-68
2021/09/09 08:50:54;;;;;;;8.88;6.18;;;;;;;;;;5023087;28;20083;-71
2021/09/09 08:53:21;;;;;;;7.30;5.75;;;;;;;;;;5020110;28;20169;-67
2021/09/09 08:55:49;;;;;;;6.63;5.75;;;;;;;;;;5003756;28;20128;-68
2021/09/09 08:58:16;;;;;;;8.30;6.00;;;;;;;;;;5003299;28;20513;-69
2021/09/09 09:01:03;;;;;;;9.02;6.82;;;;;;;;;;5020517;28;20050;-68
2021/09/09 09:03:51;;;;;;;9.68;6.75;;;;;;;;;;5022553;28;20052;-68
2021/09/09 09:06:26;;;;;;;7.43;5.80;;;;;;;;;;5021295;28;20049;-68
2021/09/09 09:08:53;;;;;;;8.57;5.97;;;;;;;;;;5023462;28;20532;-68
2021/09/09 09:11:23;;;;;;;10.18;5.63;;;;;;;;;;5023448;28;20108;-69
2021/09/09 09:13:50;;;;;;;8.27;5.30;;;;;;;;;;5021047;28;20042;-70
2021/09/09 09:16:18;;;;;;;7.88;5.88;;;;;;;;;;5019639;28;20108;-69
2021/09/09 09:18:45;;;;;;;7.22;5.82;;;;;;;;;;5016056;28;20046;-69
2021/09/09 09:21:13;;;;;;;8.23;5.47;;;;;;;;;;5022396;28;20493;-68
2021/09/09 09:23:49;;;;;;;8.10;5.53;;;;;;;;;;5023348;28;20049;-68
2021/09/09 09:26:24;;;;;;;9.23;5.47;;;;;;;;;;5021447;28;20058;-67
2021/09/09 09:28:55;;;;;;;8.30;5.80;;;;;;;;;;5023628;28;20063;-67
2021/09/09 09:31:23;;;;;;;8.77;5.40;;;;;;;;;;5026384;28;20192;-67
2021/09/09 09:33:55;;;;;;;10.15;6.07;;;;;;;;;;5020807;28;20056;-68
2021/09/09 09:36:30;;;;;;;8.13;5.53;;;;;;;;;;5022404;28;20095;-68
2021/09/09 09:39:13;;;;;;;8.75;5.40;;;;;;;;;;5021434;28;20046;-69
2021/09/09 09:41:57;;;;;;;5.40;4.85;;;;;;;;;;5003364;28;20185;-67
2021/09/09 09:44:40;;;;;;;7.63;5.30;;;;;;;;;;5014487;28;20100;-68
2021/09/09 09:47:16;;;;;;;7.72;5.15;;;;;;;;;;5021782;28;20053;-69
2021/09/09 09:49:44;;;;;;;8.50;6.00;;;;;;;;;;5028415;28;20464;-68
2021/09/09 09:52:32;;;;;;;7.97;5.25;;;;;;;;;;5018821;28;20068;-68
2021/09/09 09:55:00;;;;;;;6.63;5.22;;;;;;;;;;5022275;28;20046;-68
2021/09/09 09:57:29;;;;;;;6.10;4.65;;;;;;;;;;5023133;28;20049;-67
2021/09/09 09:59:56;;;;;;;8.13;5.55;;;;;;;;;;5022233;28;20073;-69
2021/09/09 10:02:25;;;;;;;7.03;4.93;;;;;;;;;;5020503;28;20048;-69
2021/09/09 10:04:53;;;;;;;9.00;5.03;;;;;;;;;;5001184;28;20200;-68
2021/09/09 10:07:20;;;;;;;5.90;5.25;;;;;;;;;;4992974;28;20100;-68
2021/09/09 10:09:53;;;;;;;6.70;5.05;;;;;;;;;;5021721;28;20076;-68
2021/09/09 10:12:24;;;;;;;7.50;5.40;;;;;;;;;;5001088;28;20492;-68
2021/09/09 10:14:54;;;;;;;7.25;5.07;;;;;;;;;;5012465;28;20428;-68
2021/09/09 10:17:21;;;;;;;9.60;5.10;;;;;;;;;;5002878;28;20053;-68
2021/09/09 10:19:49;;;;;;;5.45;4.25;;;;;;;;;;5018729;28;20053;-69
2021/09/09 10:22:17;;;;;;;7.38;4.75;;;;;;;;;;5026559;28;20050;-68
2021/09/09 10:24:48;;;;;;;5.32;4.82;;;;;;;;;;5028916;28;20389;-68
2021/09/09 10:27:25;;;;;;;6.80;5.22;;;;;;;;;;5026780;28;20050;-69
2021/09/09 10:29:54;;;;;;;8.85;5.32;;;;;;;;;;5028061;28;20108;-68
2021/09/09 10:32:47;;;;;;;5.68;4.97;;;;;;;;;;5022327;28;20049;-68
2021/09/09 10:35:14;;;;;;;7.10;5.15;;;;;;;;;;5017451;28;20069;-69
2021/09/09 10:37:52;;;;;;;5.43;4.30;;;;;;;;;;5018486;28;20088;-68
2021/09/09 10:40:28;;;;;;;5.72;4.15;;;;;;;;;;5026320;28;20060;-68
2021/09/09 10:43:05;;;;;;;7.40;4.93;;;;;;;;;;5019340;28;20500;-68
2021/09/09 10:45:34;;;;;;;8.95;4.75;;;;;;;;;;5018219;28;20053;-68
2021/09/09 10:48:18;;;;;;;6.25;4.47;;;;;;;;;;5018876;28;20092;-68
2021/09/09 10:51:15;;;;;;;5.57;4.40;;;;;;;;;;5025498;28;20049;-68
2021/09/09 10:53:55;;;;;;;5.30;3.95;;;;;;;;;;5020537;28;20049;-66
2021/09/09 10:56:27;;;;;;;5.60;4.45;;;;;;;;;;5023111;28;20053;-66
2021/09/09 10:59:13;;;;;;;7.28;5.78;;;;;;;;;;5026000;28;20050;-68
2021/09/09 11:01:45;;;;;;;6.85;5.20;;;;;;;;;;5019650;28;20049;-67
2021/09/09 11:04:33;;;;;;;7.47;5.28;;;;;;;;;;5020679;28;20049;-67
2021/09/09 11:07:00;;;;;;;6.60;4.78;;;;;;;;;;5019425;28;20045;-67
2021/09/09 11:09:28;;;;;;;6.55;5.40;;;;;;;;;;5020458;28;20093;-68
2021/09/09 11:11:57;;;;;;;5.22;4.70;;;;;;;;;;5007537;28;20053;-70
2021/09/09 11:14:24;;;;;;;6.72;5.13;;;;;;;;;;5021659;28;20488;-66
2021/09/09 11:16:51;;;;;;;6.47;4.97;;;;;;;;;;5002267;28;20049;-65
2021/09/09 11:19:20;;;;;;;6.25;5.65;;;;;;;;;;5019915;28;20052;-67
2021/09/09 11:21:47;;;;;;;5.43;4.93;;;;;;;;;;5025146;28;20050;-66
2021/09/09 11:24:14;;;;;;;7.10;5.22;;;;;;;;;;5025640;28;20045;-67
2021/09/09 11:26:46;;;;;;;8.38;4.47;;;;;;;;;;5027406;28;20045;-68
2021/09/09 11:29:13;;;;;;;6.57;4.30;;;;;;;;;;5026942;28;20504;-68
2021/09/09 11:31:47;;;;;;;5.22;4.70;;;;;;;;;;5027087;28;20049;-68
2021/09/09 11:34:20;;;;;;;5.63;4.68;;;;;;;;;;5022397;28;20041;-68
2021/09/09 11:36:47;;;;;;;5.53;5.03;;;;;;;;;;5002763;28;20054;-68
2021/09/09 11:39:16;;;;;;;5.25;4.22;;;;;;;;;;5018587;28;20053;-67
2021/09/09 11:41:43;;;;;;;6.53;4.85;;;;;;;;;;5017829;28;20045;-65
2021/09/09 11:44:32;;;;;;;5.15;4.65;;;;;;;;;;5021658;28;20041;-68
2021/09/09 11:47:00;;;;;;;6.82;4.18;;;;;;;;;;5026680;28;20562;-69
2021/09/09 11:49:30;;;;;;;4.95;4.25;;;;;;;;;;5022259;28;20560;-67
2021/09/09 11:51:58;;;;;;;9.55;5.40;;;;;;;;;;5017320;28;20057;-68
2021/09/09 11:54:32;;;;;;;8.68;5.30;;;;;;;;;;5002612;28;20042;-67
2021/09/09 11:57:08;;;;;;;6.60;5.07;;;;;;;;;;5016904;28;20059;-68
2021/09/09 11:59:46;;;;;;;6.55;5.13;;;;;;;;;;5020215;28;20093;-68
2021/09/09 12:02:15;;;;;;;7.18;4.78;;;;;;;;;;5018733;28;20076;-67
2021/09/09 12:04:42;;;;;;;5.93;4.90;;;;;;;;;;5002875;28;20045;-67
2021/09/09 12:07:20;;;;;;;5.70;4.43;;;;;;;;;;5001695;28;20045;-67
2021/09/09 12:10:06;;;;;;;6.40;5.20;;;;;;;;;;5017623;28;20056;-67
2021/09/09 12:12:34;;;;;;;9.45;5.50;;;;;;;;;;5020874;28;20070;-68
2021/09/09 12:15:09;;;;;;;27.20;18.40;;;;;;;;;;5028471;28;20455;-67
2021/09/09 12:17:40;;;;;;;22.75;14.88;;;;;;;;;;5024999;28;20133;-67
2021/09/09 12:20:11;;;;;;;18.83;12.43;;;;;;;;;;5023089;28;20046;-67
2021/09/09 12:22:53;;;;;;;23.30;15.23;;;;;;;;;;5025001;28;20057;-67
2021/09/09 12:25:26;;;;;;;;;;;;;;;;;;5025093;28;20118;-67
2021/09/09 12:28:15;;;;;;;10.13;5.85;;;;;;;;;;5023210;28;19925;-68
2021/09/09 12:30:55;;;;;;;5.78;4.68;;;;;;;;;;5018676;28;20050;-68
2021/09/09 12:33:35;;;;;;;7.57;5.55;;;;;;;;;;5028354;28;20053;-67
2021/09/09 12:36:16;;;;;;;6.05;4.90;;;;;;;;;;5017556;28;20045;-67
2021/09/09 12:38:51;;;;;;;14.43;9.55;;;;;;;;;;5017880;28;20057;-68
2021/09/09 12:41:18;;;;;;;8.48;5.68;;;;;;;;;;5022783;28;20406;-67
2021/09/09 12:43:50;;;;;;;6.78;5.15;;;;;;;;;;5026646;28;20057;-68
2021/09/09 12:46:31;;;;;;;6.57;5.85;;;;;;;;;;5023182;28;20085;-67
2021/09/09 12:49:21;;;;;;;10.77;7.10;;;;;;;;;;5026175;28;20124;-66
2021/09/09 12:52:04;;;;;;;6.30;5.43;;;;;;;;;;5022769;28;20111;-67
2021/09/09 12:54:31;;;;;;;9.77;6.03;;;;;;;;;;5025751;28;20115;-67
2021/09/09 12:56:57;;;;;;;5.30;4.70;;;;;;;;;;5023180;28;20053;-67
2021/09/09 12:59:27;;;;;;;4.75;4.15;;;;;;;;;;5024622;28;20068;-67
2021/09/09 13:01:54;;;;;;;5.90;4.05;;;;;;;;;;5006035;28;20050;-67
2021/09/09 13:04:22;;;;;;;5.72;3.95;;;;;;;;;;5024125;28;20051;-67
2021/09/09 13:06:48;;;;;;;8.02;4.72;;;;;;;;;;5023739;28;20103;-67
2021/09/09 13:09:15;;;;;;;7.85;4.03;;;;;;;;;;5023297;28;20054;-68
2021/09/09 13:11:42;;;;;;;4.80;3.42;;;;;;;;;;5024205;28;20526;-68
2021/09/09 13:14:09;;;;;;;5.20;4.07;;;;;;;;;;5025542;28;20046;-67
2021/09/09 13:16:36;;;;;;;6.95;3.90;;;;;;;;;;5026956;28;20045;-67
2021/09/09 13:19:03;;;;;;;5.47;4.20;;;;;;;;;;5004974;28;20056;-68
2021/09/09 13:21:31;;;;;;;6.75;4.30;;;;;;;;;;5026960;28;20061;-67
2021/09/09 13:23:59;;;;;;;4.78;3.80;;;;;;;;;;5038833;28;20454;-67
2021/09/09 13:26:29;;;;;;;7.07;4.30;;;;;;;;;;5053438;28;20068;-66
2021/09/09 13:28:55;;;;;;;10.02;5.47;;;;;;;;;;5053856;28;20056;-67
2021/09/09 13:31:23;;;;;;;5.13;4.63;;;;;;;;;;5054338;28;20056;-66
2021/09/09 13:33:51;;;;;;;6.90;4.50;;;;;;;;;;5036535;28;20056;-67
2021/09/09 13:36:18;;;;;;;5.47;4.80;;;;;;;;;;5034503;28;20053;-67
2021/09/09 13:38:45;;;;;;;14.27;9.90;;;;;;;;;;5034386;28;20397;-67
2021/09/09 13:41:12;;;;;;;19.95;14.15;;;;;;;;;;5033946;28;20053;-67
2021/09/09 13:43:38;;;;;;;14.00;9.27;;;;;;;;;;5034065;28;20061;-67
2021/09/09 13:46:06;;;;;;;11.65;6.72;;;;;;;;;;5034165;28;20100;-67
2021/09/09 13:48:32;;;;;;;6.68;5.18;;;;;;;;;;5034117;28;20076;-68
2021/09/09 13:51:00;;;;;;;8.60;6.30;;;;;;;;;;5034067;28;20057;-67
2021/09/09 13:53:27;;;;;;;8.25;5.30;;;;;;;;;;5033297;28;20538;-67
2021/09/09 13:55:54;;;;;;;6.13;4.93;;;;;;;;;;5033743;28;20393;-67
2021/09/09 13:58:21;;;;;;;4.95;4.40;;;;;;;;;;5033987;28;20060;-67
2021/09/09 14:00:48;;;;;;;5.35;4.45;;;;;;;;;;5026032;28;20753;-64
2021/09/09 14:03:15;;;;;;;6.78;4.07;;;;;;;;;;5020745;28;20045;-67
2021/09/09 14:05:42;;;;;;;5.78;4.38;;;;;;;;;;5022549;28;20072;-66
2021/09/09 14:08:08;;;;;;;8.25;5.10;;;;;;;;;;5022416;28;20053;-67
2021/09/09 14:10:35;;;;;;;6.32;4.00;;;;;;;;;;5020748;28;20049;-65
2021/09/09 14:13:04;;;;;;;8.10;4.55;;;;;;;;;;5023135;28;20049;-68
2021/09/09 14:15:32;;;;;;;6.07;3.92;;;;;;;;;;5024363;28;20049;-67
2021/09/09 14:18:00;;;;;;;7.43;4.43;;;;;;;;;;5021941;28;20086;-67
2021/09/09 14:20:27;;;;;;;7.07;4.38;;;;;;;;;;5021219;28;20484;-68
2021/09/09 14:22:54;;;;;;;6.78;3.83;;;;;;;;;;5002141;28;20045;-67
2021/09/09 14:25:20;;;;;;;8.95;4.38;;;;;;;;;;5021555;28;20558;-71
2021/09/09 14:27:47;;;;;;;4.70;3.70;;;;;;;;;;5022229;28;20549;-71
2021/09/09 14:30:15;;;;;;;6.68;4.20;;;;;;;;;;5017985;28;20559;-65
2021/09/09 14:32:41;;;;;;;4.50;3.80;;;;;;;;;;5020110;28;20132;-70
2021/09/09 14:35:09;;;;;;;4.45;4.00;;;;;;;;;;5018996;28;20058;-70
2021/09/09 14:37:35;;;;;;;5.05;4.05;;;;;;;;;;5019892;28;20413;-71
2021/09/09 14:40:02;;;;;;;8.13;4.10;;;;;;;;;;5047613;23;20053;-69